This is the latest recevied weather packets stored in our database for station/object OE5WWO. If no packets are shown the sender has not sent any weather packets the latest 10 day(s).
| Time | Temp. | Humidity | Pressure | Rain* | Wind** | Luminosity | Snow |
|---|---|---|---|---|---|---|---|
| 1777685449 | 7.78° C | 81% | 1025.5 hPa | 0 mm | - | - | - |
| 1777684551 | 7.78° C | 80% | 1025.6 hPa | 0 mm | - | - | - |
| 1777684236 | 7.78° C | 80% | 1025.7 hPa | 0 mm | - | - | - |
| 1777683937 | 8.33° C | 79% | 1025.8 hPa | 0 mm | - | - | - |
| 1777682440 | 8.33° C | 79% | 1025.8 hPa | 0 mm | - | - | - |
| 1777682136 | 8.33° C | 79% | 1025.9 hPa | 0 mm | - | - | - |
| 1777681535 | 8.33° C | 78% | 1025.9 hPa | 0 mm | - | - | - |
| 1777680949 | 8.33° C | 77% | 1025.9 hPa | 0 mm | - | - | - |
| 1777680336 | 8.89° C | 76% | 1026 hPa | 0 mm | - | - | - |
| 1777679741 | 8.89° C | 75% | 1026.1 hPa | 0 mm | - | - | - |
| 1777677641 | 9.44° C | 71% | 1026.1 hPa | 0 mm | - | - | - |
| 1777674937 | 10° C | 67% | 1026.3 hPa | 0 mm | - | - | - |
| 1777674337 | 10.56° C | 66% | 1026.4 hPa | 0 mm | - | - | - |
| 1777667139 | 12.78° C | 58% | 1026.3 hPa | 0 mm | - | - | - |
| 1777666840 | 12.78° C | 58% | 1026.3 hPa | 0 mm | - | - | - |
| 1777664759 | 13.89° C | 56% | 1026.2 hPa | 0 mm | - | - | - |
| 1777664140 | 13.89° C | 56% | 1026.3 hPa | 0 mm | - | - | - |
| 1777663855 | 13.89° C | 56% | 1026.1 hPa | 0 mm | - | - | - |
| 1777663240 | 14.44° C | 55% | 1026.1 hPa | 0 mm | - | - | - |
| 1777662641 | 15° C | 54% | 1026.1 hPa | 0 mm | - | - | - |
| 1777662341 | 15° C | 53% | 1026.1 hPa | 0 mm | - | - | - |
| 1777662074 | 15° C | 52% | 1026.1 hPa | 0 mm | - | - | - |
| 1777656944 | 18.89° C | 40% | 1025.2 hPa | 0 mm | - | - | - |
| 1777655441 | 18.89° C | 39% | 1025 hPa | 0 mm | - | - | - |
| 1777655137 | 19.44° C | 39% | 1025 hPa | 0 mm | - | - | - |
* Rain latest hour (hover to see other rain measurements)
** Current wind speed in m/s (hover to see current wind gust speed)